createdAt,value
2018-12-03T00:00:03.719Z,12.86
2018-12-03T00:02:35.613Z,12.90
2018-12-03T00:05:04.229Z,12.89
2018-12-03T00:07:38.147Z,12.90
2018-12-03T00:10:13.355Z,12.97
2018-12-03T00:12:43.606Z,12.86
2018-12-03T00:15:14.950Z,12.83
2018-12-03T00:17:46.236Z,12.92
2018-12-03T00:20:20.037Z,12.83
2018-12-03T00:22:52.251Z,12.83
2018-12-03T00:25:25.077Z,12.73
2018-12-03T00:27:59.674Z,12.77
2018-12-03T00:30:32.450Z,12.80
2018-12-03T00:33:04.091Z,12.86
2018-12-03T00:35:32.720Z,12.88
2018-12-03T00:38:05.116Z,12.82
2018-12-03T00:40:38.015Z,12.82
2018-12-03T00:43:11.103Z,12.84
2018-12-03T00:45:44.509Z,13.09
2018-12-03T00:48:14.910Z,13.02
2018-12-03T00:50:49.556Z,13.04
2018-12-03T00:53:23.256Z,12.99
2018-12-03T00:55:52.456Z,13.01
2018-12-03T00:58:31.280Z,13.00
2018-12-03T01:01:05.203Z,12.92
2018-12-03T01:03:36.563Z,12.90
2018-12-03T01:06:06.165Z,12.92
2018-12-03T01:08:39.987Z,13.04
2018-12-03T01:11:13.821Z,12.96
2018-12-03T01:13:44.670Z,12.98
2018-12-03T01:16:15.522Z,13.03
2018-12-03T01:18:46.406Z,13.03
2018-12-03T01:21:19.238Z,13.03
2018-12-03T01:23:49.590Z,12.99
2018-12-03T01:26:21.085Z,12.99
2018-12-03T01:28:51.696Z,13.00
2018-12-03T01:31:22.631Z,12.99
2018-12-03T01:33:53.157Z,12.98
2018-12-03T01:36:21.728Z,12.90
2018-12-03T01:38:56.660Z,12.93
2018-12-03T01:41:33.919Z,12.88
2018-12-03T01:44:04.356Z,12.83
2018-12-03T01:46:35.844Z,12.79
2018-12-03T01:49:05.694Z,12.74
2018-12-03T01:51:36.584Z,12.77
2018-12-03T01:54:08.532Z,12.84
2018-12-03T01:56:37.628Z,12.84
2018-12-03T01:59:08.667Z,12.90
2018-12-03T02:01:38.791Z,12.92
2018-12-03T02:04:10.631Z,12.89
2018-12-03T02:06:39.427Z,12.88
2018-12-03T02:09:13.276Z,12.84
2018-12-03T02:11:46.856Z,12.88
2018-12-03T02:14:18.782Z,12.84
2018-12-03T02:16:50.855Z,12.86
2018-12-03T02:19:24.437Z,12.86
2018-12-03T02:22:00.475Z,12.92
2018-12-03T02:24:33.603Z,12.92
2018-12-03T02:27:05.339Z,13.02
2018-12-03T02:29:40.044Z,13.08
2018-12-03T02:32:10.168Z,12.99
2018-12-03T02:34:42.941Z,12.92
2018-12-03T02:37:11.548Z,12.88
2018-12-03T02:39:40.217Z,12.85
2018-12-03T02:42:08.845Z,12.85
2018-12-03T02:44:38.312Z,12.94
2018-12-03T02:47:06.941Z,13.05
2018-12-03T02:49:35.510Z,12.99
2018-12-03T02:52:04.099Z,12.96
2018-12-03T02:54:32.697Z,12.88
2018-12-03T02:57:01.709Z,12.83
2018-12-03T02:59:30.313Z,12.79
2018-12-03T03:01:58.931Z,12.79
2018-12-03T03:04:27.509Z,12.81
2018-12-03T03:06:56.633Z,12.77
2018-12-03T03:09:25.246Z,12.79
2018-12-03T03:11:53.828Z,12.80
2018-12-03T03:14:22.431Z,12.74
2018-12-03T03:16:51.001Z,12.67
2018-12-03T03:19:19.606Z,12.66
2018-12-03T03:21:48.213Z,12.61
2018-12-03T03:24:16.848Z,12.66
2018-12-03T03:26:45.386Z,12.64
2018-12-03T03:29:13.955Z,12.63
2018-12-03T03:31:42.504Z,12.65
2018-12-03T03:34:11.080Z,12.86
2018-12-03T03:36:39.636Z,12.87
2018-12-03T03:39:09.239Z,12.93
2018-12-03T03:41:37.821Z,12.89
2018-12-03T03:44:06.715Z,12.89
2018-12-03T03:46:35.305Z,12.85
2018-12-03T03:49:03.858Z,12.87
2018-12-03T03:51:32.436Z,12.82
2018-12-03T03:54:00.972Z,12.86
2018-12-03T03:56:29.547Z,12.76
2018-12-03T03:58:58.379Z,12.79
2018-12-03T04:01:28.152Z,12.80
2018-12-03T04:03:56.687Z,12.81
2018-12-03T04:06:26.021Z,12.84
2018-12-03T04:08:54.578Z,12.84
2018-12-03T04:11:24.079Z,12.84
2018-12-03T04:13:52.649Z,12.87
2018-12-03T04:16:21.227Z,12.98
2018-12-03T04:18:49.759Z,12.92
2018-12-03T04:21:18.405Z,12.87
2018-12-03T04:23:46.991Z,12.95
2018-12-03T04:26:15.648Z,12.91
2018-12-03T04:28:44.245Z,12.96
2018-12-03T04:31:12.859Z,12.99
2018-12-03T04:33:41.455Z,12.94
2018-12-03T04:36:10.051Z,12.96
2018-12-03T04:38:38.663Z,12.87
2018-12-03T04:41:07.276Z,12.88
2018-12-03T04:43:35.838Z,12.93
2018-12-03T04:46:04.463Z,12.91
2018-12-03T04:48:33.050Z,12.90
2018-12-03T04:51:01.655Z,12.90
2018-12-03T04:53:30.212Z,12.89
2018-12-03T04:55:58.835Z,12.78
2018-12-03T04:58:27.675Z,12.79
2018-12-03T05:00:56.359Z,12.82
2018-12-03T05:03:24.962Z,12.85
2018-12-03T05:05:53.753Z,12.78
2018-12-03T05:08:22.453Z,12.75
2018-12-03T05:10:51.453Z,12.74
2018-12-03T05:13:20.171Z,12.81
2018-12-03T05:15:48.738Z,12.77
2018-12-03T05:18:17.417Z,12.79
2018-12-03T05:20:45.996Z,12.76
2018-12-03T05:23:15.064Z,12.68
2018-12-03T05:25:45.818Z,12.63
2018-12-03T05:28:15.317Z,12.58
2018-12-03T05:30:44.136Z,12.56
2018-12-03T05:33:14.931Z,12.63
2018-12-03T05:35:43.570Z,12.65
2018-12-03T05:38:12.145Z,12.63
2018-12-03T05:40:41.037Z,12.65
2018-12-03T05:43:09.774Z,12.68
2018-12-03T05:45:38.347Z,12.77
2018-12-03T05:48:09.098Z,12.79
2018-12-03T05:50:38.360Z,12.37
2018-12-03T05:53:07.560Z,12.81
2018-12-03T05:55:36.311Z,12.81
2018-12-03T05:58:04.939Z,12.87
2018-12-03T06:00:33.523Z,12.87
2018-12-03T06:03:02.148Z,12.80
2018-12-03T06:05:31.865Z,12.86
2018-12-03T06:08:00.081Z,12.76
2018-12-03T06:10:28.811Z,12.83
2018-12-03T06:12:57.463Z,12.77
2018-12-03T06:18:25.936Z,12.85
2018-12-03T06:21:05.710Z,12.84
2018-12-03T06:23:45.603Z,12.78
2018-12-03T06:26:27.248Z,12.83
2018-12-03T06:29:06.286Z,12.82
2018-12-03T06:31:44.556Z,12.75
2018-12-03T06:34:28.218Z,12.81
2018-12-03T06:37:05.284Z,12.80
2018-12-03T06:39:49.083Z,12.79
2018-12-03T06:42:28.219Z,12.88
2018-12-03T06:45:07.662Z,12.82
2018-12-03T06:47:45.886Z,12.85
2018-12-03T06:55:48.900Z,12.85
2018-12-03T06:58:31.109Z,12.69
2018-12-03T07:01:08.685Z,12.81
2018-12-03T07:03:50.086Z,12.81
2018-12-03T07:06:29.271Z,12.80
2018-12-03T07:09:06.490Z,12.63
2018-12-03T07:11:44.675Z,12.69
2018-12-03T07:14:24.785Z,12.69
2018-12-03T07:17:04.859Z,12.58
2018-12-03T07:19:43.771Z,12.53
2018-12-03T07:22:23.585Z,12.55
2018-12-03T07:25:01.802Z,12.52
2018-12-03T07:27:39.807Z,12.55
2018-12-03T07:30:22.862Z,12.41
2018-12-03T07:33:07.727Z,12.38
2018-12-03T07:35:51.361Z,12.32
2018-12-03T07:38:29.386Z,12.32
2018-12-03T07:41:13.077Z,12.31
2018-12-03T07:43:51.641Z,12.37
2018-12-03T07:46:29.181Z,12.31
2018-12-03T07:49:13.799Z,12.16
2018-12-03T07:51:53.214Z,12.11
2018-12-03T07:54:35.493Z,11.98
2018-12-03T07:57:16.469Z,11.91
2018-12-03T07:59:55.044Z,11.85
2018-12-03T08:02:33.575Z,11.83
2018-12-03T08:05:14.733Z,11.79
2018-12-03T08:07:54.225Z,11.72
2018-12-03T08:10:33.822Z,11.64
2018-12-03T08:13:14.550Z,11.67
2018-12-03T08:15:56.570Z,11.62
2018-12-03T08:18:33.902Z,11.58
2018-12-03T08:21:15.723Z,11.49
2018-12-03T08:27:36.554Z,11.23
2018-12-03T08:30:09.942Z,11.25
2018-12-03T08:32:41.855Z,11.20
2018-12-03T08:35:14.100Z,11.12
2018-12-03T08:37:48.323Z,11.12
2018-12-03T08:40:20.972Z,11.08
2018-12-03T08:42:52.916Z,11.04
2018-12-03T08:45:25.632Z,11.03
2018-12-03T08:47:59.095Z,11.01
2018-12-03T08:50:34.445Z,11.03
2018-12-03T08:53:09.068Z,11.00
2018-12-03T08:55:41.421Z,11.02
2018-12-03T08:58:13.905Z,10.97
2018-12-03T09:08:21.132Z,10.85
2018-12-03T09:10:55.224Z,10.82
2018-12-03T09:13:27.759Z,10.78
2018-12-03T09:16:02.073Z,10.75
2018-12-03T09:18:35.027Z,10.76
2018-12-03T09:21:11.259Z,10.74
2018-12-03T09:23:45.282Z,10.76
2018-12-03T09:26:17.644Z,10.73
2018-12-03T09:28:49.563Z,10.75
2018-12-03T09:34:03.786Z,10.87
2018-12-03T09:36:37.326Z,10.91
2018-12-03T09:39:11.586Z,10.94
2018-12-03T09:41:45.376Z,10.99
2018-12-03T09:44:13.122Z,11.02
2018-12-03T09:46:40.664Z,11.07
2018-12-03T09:49:08.261Z,11.05
2018-12-03T09:51:35.892Z,11.04
2018-12-03T09:54:03.566Z,11.02
2018-12-03T09:56:31.092Z,11.07
2018-12-03T09:58:58.596Z,11.05
2018-12-03T10:01:26.126Z,11.06
2018-12-03T10:03:53.617Z,11.15
2018-12-03T10:06:21.140Z,11.15
2018-12-03T10:08:48.637Z,11.15
2018-12-03T10:11:16.175Z,11.14
2018-12-03T10:13:43.662Z,11.16
2018-12-03T10:16:11.239Z,11.14
2018-12-03T10:18:38.740Z,11.17
2018-12-03T10:21:06.231Z,11.18
2018-12-03T10:23:33.759Z,11.16
2018-12-03T10:26:05.327Z,11.21
2018-12-03T10:28:32.855Z,11.29
2018-12-03T10:31:00.351Z,11.16
2018-12-03T10:33:27.871Z,11.23
2018-12-03T10:35:55.368Z,11.25
2018-12-03T10:38:22.907Z,11.22
2018-12-03T10:40:50.442Z,11.26
2018-12-03T10:43:17.973Z,11.24
2018-12-03T10:45:45.467Z,11.25
2018-12-03T10:48:12.997Z,11.25
2018-12-03T10:50:40.598Z,11.35
2018-12-03T10:53:10.732Z,11.95
2018-12-03T10:55:40.132Z,11.98
2018-12-03T10:58:07.674Z,12.35
2018-12-03T11:00:40.863Z,12.39
2018-12-03T11:03:12.085Z,12.37
2018-12-03T11:08:40.359Z,12.32
2018-12-03T11:11:08.035Z,12.39
2018-12-03T11:13:35.563Z,12.31
2018-12-03T11:16:03.052Z,12.34
2018-12-03T11:18:30.672Z,12.45
2018-12-03T11:21:02.367Z,12.49
2018-12-03T11:23:34.475Z,12.55
2018-12-03T11:25:59.488Z,12.54
2018-12-03T11:28:31.391Z,12.50
2018-12-03T11:30:58.875Z,12.55
2018-12-03T11:33:26.514Z,12.53
2018-12-03T11:35:54.014Z,12.70
2018-12-03T11:38:22.135Z,12.64
2018-12-03T11:40:49.623Z,12.73
2018-12-03T11:43:17.147Z,12.76
2018-12-03T11:45:44.663Z,12.77
2018-12-03T11:48:12.190Z,12.87
2018-12-03T11:50:39.685Z,12.85
2018-12-03T11:53:07.214Z,12.86
2018-12-03T11:55:34.703Z,12.85
2018-12-03T11:58:02.313Z,12.89
2018-12-03T12:00:29.868Z,12.73
2018-12-03T12:02:57.365Z,12.66
2018-12-03T12:05:24.891Z,12.66
2018-12-03T12:07:52.387Z,12.83
2018-12-03T12:10:19.913Z,12.84
2018-12-03T12:12:47.405Z,12.90
2018-12-03T12:15:14.963Z,12.97
2018-12-03T12:17:42.457Z,12.99
2018-12-03T12:20:10.083Z,13.00
2018-12-03T12:22:37.580Z,12.95
2018-12-03T12:25:06.599Z,12.98
2018-12-03T12:27:34.184Z,12.93
2018-12-03T12:30:01.739Z,12.85
2018-12-03T12:32:29.237Z,12.85
2018-12-03T12:34:56.759Z,12.88
2018-12-03T12:37:26.769Z,12.91
2018-12-03T12:39:54.738Z,13.01
2018-12-03T12:42:22.224Z,13.14
2018-12-03T12:44:49.905Z,13.12
2018-12-03T12:47:19.671Z,13.16
2018-12-03T12:49:47.200Z,13.16
2018-12-03T12:52:14.686Z,13.04
2018-12-03T12:54:42.211Z,12.99
2018-12-03T12:57:09.715Z,12.96
2018-12-03T12:59:37.261Z,12.96
2018-12-03T13:02:06.264Z,12.97
2018-12-03T13:04:33.943Z,13.00
2018-12-03T13:07:01.660Z,12.99
2018-12-03T13:09:29.486Z,12.93
2018-12-03T13:11:57.615Z,12.85
2018-12-03T13:14:25.400Z,12.76
2018-12-03T13:16:56.087Z,12.73
2018-12-03T13:19:28.385Z,12.66
2018-12-03T13:22:02.941Z,12.68
2018-12-03T13:24:34.325Z,12.54
2018-12-03T13:27:06.201Z,12.52
2018-12-03T13:29:39.085Z,12.53
2018-12-03T13:32:09.890Z,12.65
2018-12-03T13:34:40.166Z,12.65
2018-12-03T13:37:08.642Z,12.65
2018-12-03T13:39:36.683Z,12.65
2018-12-03T13:42:06.529Z,12.56
2018-12-03T13:44:41.185Z,12.54
2018-12-03T13:47:12.150Z,12.56
2018-12-03T13:49:46.902Z,12.62
2018-12-03T13:52:14.490Z,12.60
2018-12-03T13:54:44.753Z,12.50
2018-12-03T13:57:15.175Z,12.45
2018-12-03T13:59:48.175Z,12.45
2018-12-03T14:02:19.597Z,12.42
2018-12-03T14:04:47.878Z,12.47
2018-12-03T14:07:17.778Z,12.48
2018-12-03T14:09:48.630Z,12.53
2018-12-03T14:12:26.021Z,12.54
2018-12-03T14:14:55.252Z,12.70
2018-12-03T14:17:23.722Z,12.67
2018-12-03T14:19:54.469Z,12.62
2018-12-03T14:22:24.434Z,12.57
2018-12-03T14:24:55.109Z,12.53
2018-12-03T14:27:23.756Z,12.47
2018-12-03T14:29:52.511Z,12.48
2018-12-03T14:32:20.002Z,12.49
2018-12-03T14:34:47.547Z,12.37
2018-12-03T14:37:15.117Z,12.34
2018-12-03T14:39:42.699Z,12.32
2018-12-03T14:42:10.564Z,12.33
2018-12-03T14:44:38.240Z,12.33
2018-12-03T14:47:05.826Z,12.28
2018-12-03T14:49:33.335Z,12.23
2018-12-03T14:52:00.964Z,12.17
2018-12-03T14:54:28.582Z,12.11
2018-12-03T14:56:56.265Z,12.10
2018-12-03T14:59:23.799Z,12.08
2018-12-03T15:01:51.547Z,12.11
2018-12-03T15:04:19.092Z,12.08
2018-12-03T15:06:46.785Z,12.00
2018-12-03T15:09:14.307Z,11.91
2018-12-03T15:11:44.403Z,11.98
2018-12-03T15:14:14.567Z,11.97
2018-12-03T15:16:46.190Z,11.97
2018-12-03T15:19:15.030Z,12.04
2018-12-03T15:21:45.591Z,12.15
2018-12-03T15:24:14.368Z,12.19
2018-12-03T15:26:45.740Z,12.22
2018-12-03T15:29:15.950Z,12.25
2018-12-03T15:31:45.805Z,12.25
2018-12-03T15:34:15.900Z,12.34
2018-12-03T15:36:45.889Z,12.32
2018-12-03T15:39:20.059Z,12.31
2018-12-03T15:41:50.176Z,12.29
2018-12-03T15:44:22.416Z,12.31
2018-12-03T15:46:51.932Z,12.27
2018-12-03T15:49:19.482Z,12.28
2018-12-03T15:51:49.606Z,12.24
2018-12-03T15:54:20.585Z,12.22
2018-12-03T15:56:52.531Z,12.25
2018-12-03T15:59:22.755Z,12.20
2018-12-03T16:01:54.124Z,12.22
2018-12-03T16:04:24.746Z,12.23
2018-12-03T16:06:55.549Z,12.27
2018-12-03T16:09:25.995Z,12.25
2018-12-03T16:12:03.046Z,12.22
2018-12-03T16:14:38.803Z,12.24
2018-12-03T16:17:09.584Z,12.27
2018-12-03T16:19:44.798Z,12.19
2018-12-03T16:22:14.779Z,12.14
2018-12-03T16:24:44.809Z,12.14
2018-12-03T16:27:12.556Z,12.19
2018-12-03T16:29:43.969Z,12.18
2018-12-03T16:32:14.130Z,12.18
2018-12-03T16:34:43.117Z,12.19
2018-12-03T16:37:10.656Z,12.16
2018-12-03T16:39:38.212Z,12.11
2018-12-03T16:42:05.769Z,12.10
2018-12-03T16:44:33.415Z,12.07
2018-12-03T16:47:00.960Z,12.10
2018-12-03T16:49:28.959Z,12.07
2018-12-03T16:51:56.737Z,12.06
2018-12-03T16:54:24.269Z,12.03
2018-12-03T16:56:51.916Z,12.00
2018-12-03T16:59:19.493Z,12.01
2018-12-03T17:01:47.125Z,12.05
2018-12-03T17:04:15.154Z,12.06
2018-12-03T17:06:44.454Z,11.99
2018-12-03T17:09:12.063Z,11.96
2018-12-03T17:11:39.763Z,11.97
2018-12-03T17:14:07.264Z,12.00
2018-12-03T17:16:34.795Z,11.95
2018-12-03T17:19:02.285Z,11.92
2018-12-03T17:21:30.770Z,11.91
2018-12-03T17:23:58.307Z,11.93
2018-12-03T17:26:25.836Z,11.87
2018-12-03T17:28:53.338Z,11.88
2018-12-03T17:31:20.944Z,11.84
2018-12-03T17:33:48.525Z,11.88
2018-12-03T17:36:16.029Z,11.89
2018-12-03T17:38:44.974Z,11.88
2018-12-03T17:41:12.474Z,11.81
2018-12-03T17:43:39.995Z,11.81
2018-12-03T17:46:07.548Z,11.80
2018-12-03T17:48:35.080Z,11.76
2018-12-03T17:51:02.668Z,11.68
2018-12-03T17:53:30.458Z,11.62
2018-12-03T17:55:57.958Z,11.70
2018-12-03T17:58:25.496Z,11.60
2018-12-03T18:00:52.988Z,11.59
2018-12-03T18:03:20.515Z,11.56
2018-12-03T18:05:48.014Z,11.55
2018-12-03T18:08:15.546Z,11.54
2018-12-03T18:10:43.137Z,11.52
2018-12-03T18:13:10.668Z,11.44
2018-12-03T18:15:38.172Z,11.40
2018-12-03T18:18:05.712Z,11.38
2018-12-03T18:20:33.212Z,11.37
2018-12-03T18:23:05.317Z,11.34
2018-12-03T18:25:33.041Z,11.24
2018-12-03T18:28:00.583Z,11.23
2018-12-03T18:30:28.087Z,11.22
2018-12-03T18:32:55.620Z,11.22
2018-12-03T18:35:23.120Z,11.20
2018-12-03T18:37:50.647Z,11.17
2018-12-03T18:40:18.352Z,11.15
2018-12-03T18:42:45.892Z,11.16
2018-12-03T18:45:13.402Z,11.11
2018-12-03T18:47:44.164Z,11.05
2018-12-03T18:50:11.861Z,11.06
2018-12-03T18:52:39.391Z,10.96
2018-12-03T18:55:10.234Z,10.98
2018-12-03T18:57:38.317Z,10.99
2018-12-03T19:00:09.818Z,10.99
2018-12-03T19:02:37.448Z,11.04
2018-12-03T19:05:05.345Z,11.01
2018-12-03T19:07:32.879Z,11.00
2018-12-03T19:10:03.116Z,11.01
2018-12-03T19:12:30.826Z,11.05
2018-12-03T19:14:58.336Z,11.07
2018-12-03T19:17:25.863Z,11.00
2018-12-03T19:19:53.368Z,10.99
2018-12-03T19:22:20.925Z,10.87
2018-12-03T19:24:48.420Z,10.78
2018-12-03T19:27:15.939Z,10.72
2018-12-03T19:29:44.015Z,10.64
2018-12-03T19:32:11.507Z,10.69
2018-12-03T19:34:39.602Z,10.60
2018-12-03T19:37:07.147Z,10.59
2018-12-03T19:39:34.678Z,10.56
2018-12-03T19:42:03.263Z,10.55
2018-12-03T19:44:31.024Z,10.57
2018-12-03T19:46:59.106Z,10.53
2018-12-03T19:49:26.652Z,10.54
2018-12-03T19:51:54.935Z,10.49
2018-12-03T19:54:22.455Z,10.45
2018-12-03T19:56:50.111Z,10.51
2018-12-03T19:59:18.272Z,10.51
2018-12-03T20:01:45.835Z,10.52
2018-12-03T20:04:20.955Z,10.56
2018-12-03T20:06:48.892Z,10.57
2018-12-03T20:09:16.523Z,10.57
2018-12-03T20:11:44.066Z,10.57
2018-12-03T20:14:22.883Z,10.61
2018-12-03T20:16:50.591Z,10.61
2018-12-03T20:19:18.378Z,10.57
2018-12-03T20:21:46.173Z,10.55
2018-12-03T20:24:16.223Z,10.56
2018-12-03T20:26:43.946Z,10.54
2018-12-03T20:29:11.760Z,10.51
2018-12-03T20:31:39.634Z,10.52
2018-12-03T20:34:08.240Z,10.57
2018-12-03T20:36:36.533Z,10.61
2018-12-03T20:39:08.059Z,10.63
2018-12-03T20:41:35.653Z,10.64
2018-12-03T20:44:05.971Z,10.66
2018-12-03T20:46:34.051Z,10.59
2018-12-03T20:49:01.768Z,10.56
2018-12-03T20:51:29.440Z,10.56
2018-12-03T20:53:56.979Z,10.51
2018-12-03T20:56:24.472Z,10.41
2018-12-03T20:58:51.973Z,10.40
2018-12-03T21:01:19.991Z,10.38
2018-12-03T21:03:47.494Z,10.36
2018-12-03T21:06:15.028Z,10.42
2018-12-03T21:08:42.526Z,10.44
2018-12-03T21:11:10.052Z,10.47
2018-12-03T21:13:37.548Z,10.46
2018-12-03T21:16:05.081Z,10.52
2018-12-03T21:18:32.583Z,10.43
2018-12-03T21:21:00.192Z,10.50
2018-12-03T21:23:27.689Z,10.47
2018-12-03T21:25:55.189Z,10.54
2018-12-03T21:28:22.732Z,10.54
2018-12-03T21:30:50.235Z,10.72
2018-12-03T21:33:17.779Z,10.70
2018-12-03T21:35:48.288Z,10.56
2018-12-03T21:38:19.133Z,10.47
2018-12-03T21:40:48.139Z,10.42
2018-12-03T21:43:18.120Z,10.44
2018-12-03T21:45:58.104Z,10.44
2018-12-03T21:48:26.987Z,10.39
2018-12-03T21:50:56.479Z,10.30
2018-12-03T21:53:26.747Z,10.32
2018-12-03T21:55:56.948Z,10.41
2018-12-03T21:58:26.998Z,10.42
2018-12-03T22:00:56.545Z,10.46
2018-12-03T22:03:24.934Z,10.43
2018-12-03T22:05:53.895Z,10.37
2018-12-03T22:08:22.550Z,10.34
2018-12-03T22:10:54.356Z,10.29
2018-12-03T22:13:22.871Z,10.25
2018-12-03T22:15:52.624Z,10.25
2018-12-03T22:18:21.796Z,10.33
2018-12-03T22:20:52.140Z,10.41
2018-12-03T22:23:22.223Z,10.38
2018-12-03T22:25:52.368Z,10.28
2018-12-03T22:28:23.858Z,10.21
2018-12-03T22:30:53.614Z,10.18
2018-12-03T22:33:22.708Z,10.10
2018-12-03T22:35:52.738Z,10.05
2018-12-03T22:38:22.686Z,9.99
2018-12-03T22:40:52.699Z,9.98
2018-12-03T22:43:22.022Z,9.94
2018-12-03T22:45:51.012Z,10.02
2018-12-03T22:48:20.938Z,10.05
2018-12-03T22:50:48.816Z,10.10
2018-12-03T22:53:16.423Z,10.09
2018-12-03T22:55:45.211Z,10.05
2018-12-03T22:58:13.701Z,10.12
2018-12-03T23:00:44.764Z,10.12
2018-12-03T23:03:13.142Z,10.12
2018-12-03T23:05:45.211Z,10.17
2018-12-03T23:08:19.130Z,10.16
2018-12-03T23:10:50.823Z,10.13
2018-12-03T23:13:22.909Z,10.14
2018-12-03T23:15:53.764Z,10.15
2018-12-03T23:18:24.724Z,10.14
2018-12-03T23:20:54.597Z,10.16
2018-12-03T23:23:23.086Z,10.25
2018-12-03T23:25:54.023Z,10.22
2018-12-03T23:28:24.169Z,10.27
2018-12-03T23:30:52.015Z,10.28
2018-12-03T23:33:19.730Z,10.34
2018-12-03T23:35:47.239Z,10.30
2018-12-03T23:38:18.175Z,10.30
2018-12-03T23:40:47.414Z,10.23
2018-12-03T23:43:19.838Z,10.22
2018-12-03T23:45:51.234Z,10.23
2018-12-03T23:48:28.755Z,10.19
2018-12-03T23:51:01.548Z,10.14
2018-12-03T23:53:30.591Z,10.16
2018-12-03T23:56:01.405Z,10.08
2018-12-03T23:58:29.229Z,10.06
